Time;durP1;ratioP1;P1;durP2;ratioP2;P2;SDS_P1;SDS_P2;PMS_P1;PMS_P2;Temp;Humidity;BMP_temperature;BMP_pressure;BME280_temperature;BME280_humidity;BME280_pressure;Samples;Min_cycle;Max_cycle;Signal;HPM_P1;HPM_P2
2022/08/10 00:02:20;;;;;;;;;4.75;3.50;;;;;25.23;38.00;101808.66;5117753;27;45429;-52
2022/08/10 00:04:45;;;;;;;;;7.50;7.50;;;;;24.89;38.48;101761.69;5117672;27;45221;-52
2022/08/10 00:07:11;;;;;;;;;6.50;6.50;;;;;25.13;37.38;101806.41;5117757;27;45418;-52
2022/08/10 00:09:36;;;;;;;;;5.50;5.00;;;;;25.17;38.45;101809.56;5117413;27;45162;-50
2022/08/10 00:12:02;;;;;;;;;6.25;5.50;;;;;25.13;38.09;101813.75;5118041;27;45520;-51
2022/08/10 00:14:27;;;;;;;;;9.50;8.00;;;;;25.12;38.63;101812.94;5117471;27;47230;-49
2022/08/10 00:16:52;;;;;;;;;7.25;7.25;;;;;25.11;38.83;101804.97;5117559;27;45217;-51
2022/08/10 00:19:18;;;;;;;;;7.00;5.00;;;;;25.07;38.48;101809.13;5116767;27;45294;-50
2022/08/10 00:21:44;;;;;;;;;9.75;8.50;;;;;25.01;38.33;101807.28;5117939;27;45489;-53
2022/08/10 00:24:10;;;;;;;;;7.25;7.00;;;;;25.02;38.53;101812.50;5119384;27;45325;-52
2022/08/10 00:26:35;;;;;;;;;8.00;8.00;;;;;24.99;38.33;101807.50;5120932;27;45484;-49
2022/08/10 00:29:01;;;;;;;;;9.25;9.00;;;;;24.92;38.72;101803.16;5121359;27;45337;-52
2022/08/10 00:31:26;;;;;;;;;7.00;6.25;;;;;24.97;39.16;101809.59;5121335;27;45403;-49
2022/08/10 00:33:51;;;;;;;;;9.75;8.00;;;;;24.94;38.74;101812.75;5120810;27;45413;-53
2022/08/10 00:36:16;;;;;;;;;6.00;6.00;;;;;24.92;38.48;101816.75;5120574;27;45429;-53
2022/08/10 00:38:42;;;;;;;;;8.00;8.00;;;;;24.86;39.09;101800.25;5120756;27;45260;-49
2022/08/10 00:41:07;;;;;;;;;10.00;8.00;;;;;24.83;39.09;101802.56;5121079;27;45285;-50
2022/08/10 00:43:33;;;;;;;;;6.00;6.00;;;;;24.76;39.14;101802.56;5120552;27;46893;-52
2022/08/10 00:45:58;;;;;;;;;9.50;7.50;;;;;24.77;39.41;101803.41;5120477;27;45508;-53
2022/08/10 00:48:24;;;;;;;;;8.75;7.50;;;;;24.73;38.88;101800.28;5120907;27;45337;-51
2022/08/10 00:50:49;;;;;;;;;6.00;6.00;;;;;24.73;38.98;101802.16;5120874;27;45334;-49
2022/08/10 00:53:14;;;;;;;;;8.00;8.00;;;;;24.70;38.97;101797.16;5120578;27;47552;-53
2022/08/10 00:55:40;;;;;;;;;8.25;6.50;;;;;24.69;39.17;101809.09;5120497;27;45311;-52
2022/08/10 00:58:07;;;;;;;;;8.50;7.25;;;;;24.66;39.43;101807.66;5120508;27;45352;-51
2022/08/10 01:00:33;;;;;;;;;8.00;6.25;;;;;24.63;39.35;101805.34;5120839;27;45207;-51
2022/08/10 01:02:59;;;;;;;;;11.50;9.00;;;;;24.58;39.85;101807.88;5120388;27;45255;-51
2022/08/10 01:05:25;;;;;;;;;6.75;5.75;;;;;24.58;39.17;101805.16;5120481;27;45497;-50
2022/08/10 01:08:07;;;;;;;;;9.00;9.00;;;;;24.55;39.25;101805.56;5120599;27;45448;-50
2022/08/10 01:10:56;;;;;;;;;6.50;6.50;;;;;24.52;39.25;101801.38;5120394;27;45254;-49
2022/08/10 01:13:34;;;;;;;;;8.25;6.25;;;;;24.35;39.58;101794.69;5101570;27;46492;-52
2022/08/10 01:16:10;;;;;;;;;5.00;5.00;;;;;24.47;40.15;101806.63;5120283;27;45369;-51
2022/08/10 01:18:45;;;;;;;;;6.75;6.75;;;;;24.38;39.95;101794.31;5120215;27;45397;-51
2022/08/10 01:21:33;;;;;;;;;8.50;6.50;;;;;24.40;39.58;101803.13;5120476;27;45218;-51
2022/08/10 01:24:32;;;;;;;;;6.75;6.50;;;;;24.37;39.78;101803.50;5119952;27;46286;-51
2022/08/10 01:27:25;;;;;;;;;7.00;5.60;;;;;24.36;39.71;101802.66;5120087;27;45373;-53
2022/08/10 01:30:05;;;;;;;;;6.25;6.25;;;;;24.34;39.93;101798.47;5119647;27;45369;-52
2022/08/10 01:32:52;;;;;;;;;6.25;6.00;;;;;24.32;40.39;101806.84;5101539;27;45431;-52
2022/08/10 01:35:25;;;;;;;;;6.00;4.75;;;;;24.27;40.17;101801.22;5119253;27;47280;-52
2022/08/10 01:38:25;;;;;;;;;8.00;7.00;;;;;24.24;40.12;101800.81;5120114;27;45214;-51
2022/08/10 01:41:03;;;;;;;;;6.75;6.75;;;;;24.10;40.08;101770.06;5036194;28;45494;-52
2022/08/10 01:43:32;;;;;;;;;7.75;7.75;;;;;24.20;40.15;101791.41;5035892;28;45447;-54
2022/08/10 01:46:01;;;;;;;;;9.25;7.75;;;;;24.17;40.05;101798.09;5035827;28;46160;-51
2022/08/10 01:48:33;;;;;;;;;6.80;6.80;;;;;24.13;39.82;101797.66;5036066;28;45490;-50
2022/08/10 01:51:16;;;;;;;;;7.00;6.40;;;;;24.11;40.41;101801.66;5035862;28;45246;-53
2022/08/10 01:53:50;;;;;;;;;7.00;6.50;;;;;24.09;40.57;101792.88;5036141;28;45340;-51
2022/08/10 01:56:18;;;;;;;;;5.25;5.25;;;;;24.04;40.63;101789.94;5035934;28;46965;-52
2022/08/10 01:58:48;;;;;;;;;7.00;7.00;;;;;24.07;40.70;101793.09;5035817;28;45296;-51
2022/08/10 02:01:18;;;;;;;;;8.75;6.25;;;;;24.05;40.84;101789.72;5036017;28;45491;-51
2022/08/10 02:03:46;;;;;;;;;7.25;5.50;;;;;24.04;40.63;101788.06;5036016;28;45480;-52
2022/08/10 02:06:15;;;;;;;;;5.50;5.50;;;;;24.04;40.49;101789.94;5035505;28;46192;-54
2022/08/10 02:08:42;;;;;;;;;6.80;6.80;;;;;23.98;40.69;101782.66;5035882;28;45298;-52
2022/08/10 02:11:10;;;;;;;;;6.50;6.00;;;;;23.88;40.59;101769.47;5035455;28;45554;-49
2022/08/10 02:13:38;;;;;;;;;6.50;6.25;;;;;24.00;40.68;101792.25;5035940;28;45528;-53
2022/08/10 02:16:06;;;;;;;;;7.00;7.00;;;;;23.98;40.81;101788.91;5039591;27;47140;-53
2022/08/10 02:18:32;;;;;;;;;8.40;8.40;;;;;23.94;40.65;101782.22;5118272;27;46068;-50
2022/08/10 02:21:05;;;;;;;;;7.00;7.00;;;;;23.95;41.03;101789.34;5119413;27;45287;-51
2022/08/10 02:23:34;;;;;;;;;7.00;7.00;;;;;23.82;40.92;101773.03;5119438;27;45360;-51
2022/08/10 02:26:02;;;;;;;;;9.00;8.00;;;;;23.89;40.97;101787.44;5118914;27;46233;-50
2022/08/10 02:28:31;;;;;;;;;9.20;6.60;;;;;23.88;41.31;101792.03;5118868;27;45436;-52
2022/08/10 02:31:07;;;;;;;;;8.50;5.50;;;;;23.81;40.68;101787.69;5119189;27;45238;-52
2022/08/10 02:33:35;;;;;;;;;6.50;6.00;;;;;23.85;40.98;101794.34;5100635;27;45549;-49
2022/08/10 02:36:04;;;;;;;;;8.00;6.75;;;;;23.81;40.75;101791.22;5118738;27;46063;-52
2022/08/10 02:38:36;;;;;;;;;6.00;6.00;;;;;23.78;40.84;101788.09;5118899;27;45264;-50
2022/08/10 02:41:26;;;;;;;;;9.00;7.75;;;;;23.78;41.37;101793.50;5118935;27;45320;-54
2022/08/10 02:43:55;;;;;;;;;8.00;7.00;;;;;23.75;41.37;101794.75;5119288;27;45456;-53
2022/08/10 02:46:37;;;;;;;;;7.75;7.00;;;;;23.72;41.20;101797.06;5118003;27;46303;-50
2022/08/10 02:49:04;;;;;;;;;8.00;5.80;;;;;23.72;41.53;101799.78;5118734;27;45302;-50
2022/08/10 02:51:43;;;;;;;;;6.00;6.00;;;;;23.70;41.03;101796.44;5118692;27;45431;-51
2022/08/10 02:54:16;;;;;;;;;7.00;7.00;;;;;23.65;41.30;101794.34;5118576;27;45649;-54
2022/08/10 02:56:50;;;;;;;;;4.50;4.50;;;;;23.62;41.50;101795.56;5118473;27;45723;-51
2022/08/10 02:59:22;;;;;;;;;7.40;5.00;;;;;23.61;41.31;101799.31;5118381;27;45443;-52
2022/08/10 03:01:52;;;;;;;;;8.80;8.00;;;;;23.60;41.98;101800.38;5118691;27;45412;-54
2022/08/10 03:04:19;;;;;;;;;8.50;7.25;;;;;23.58;41.77;101804.31;5118702;27;45454;-52
2022/08/10 03:06:55;;;;;;;;;6.50;6.25;;;;;23.54;41.82;101798.47;5118412;27;45219;-49
2022/08/10 03:09:24;;;;;;;;;7.75;7.75;;;;;23.54;41.61;101803.06;5118337;27;45226;-52
2022/08/10 03:11:52;;;;;;;;;6.00;6.00;;;;;23.52;41.68;101800.56;5118448;27;45293;-54
2022/08/10 03:14:20;;;;;;;;;7.50;6.25;;;;;23.50;41.83;101802.63;5118446;27;45357;-52
2022/08/10 03:16:46;;;;;;;;;7.00;7.00;;;;;23.47;42.21;101797.66;5118457;27;45245;-52
2022/08/10 03:19:14;;;;;;;;;8.00;8.00;;;;;23.45;42.05;101797.00;5118383;27;45264;-51
2022/08/10 03:21:42;;;;;;;;;7.00;7.00;;;;;23.42;42.14;101798.22;5118387;27;45430;-53
2022/08/10 03:24:09;;;;;;;;;9.00;7.00;;;;;23.40;42.22;101797.63;5118441;27;45432;-52
2022/08/10 03:26:36;;;;;;;;;7.00;6.25;;;;;23.38;42.35;101796.13;5099505;27;47220;-51
2022/08/10 03:29:05;;;;;;;;;7.20;7.20;;;;;23.36;42.34;101780.06;5118324;27;45333;-51
2022/08/10 03:31:32;;;;;;;;;9.00;7.75;;;;;23.37;42.29;101789.03;5118286;27;45370;-52
2022/08/10 03:34:00;;;;;;;;;8.75;8.75;;;;;23.35;42.36;101793.84;5118871;27;45318;-55
2022/08/10 03:36:26;;;;;;;;;9.25;7.75;;;;;23.34;42.54;101784.00;5118226;27;47070;-52
2022/08/10 03:38:52;;;;;;;;;8.00;8.00;;;;;23.32;42.50;101786.94;5118073;27;45180;-54
2022/08/10 03:41:27;;;;;;;;;9.00;8.00;;;;;23.32;42.24;101784.22;5118088;27;45382;-53
2022/08/10 03:43:53;;;;;;;;;9.25;7.00;;;;;23.28;42.67;101795.72;5118307;27;45380;-50
2022/08/10 03:46:22;;;;;;;;;7.75;7.00;;;;;23.28;42.55;101793.00;5117588;27;46634;-51
2022/08/10 03:48:52;;;;;;;;;11.50;9.25;;;;;23.14;42.77;101784.81;5117780;27;45397;-53
2022/08/10 03:51:19;;;;;;;;;7.00;6.75;;;;;23.24;42.57;101798.00;5117952;27;45599;-51
2022/08/10 03:53:45;;;;;;;;;6.75;6.75;;;;;23.21;42.56;101803.00;5118093;27;45358;-50
2022/08/10 03:56:11;;;;;;;;;9.50;9.25;;;;;23.20;42.95;101801.31;5117728;27;45530;-54
2022/08/10 03:58:37;;;;;;;;;8.00;8.00;;;;;23.18;42.93;101798.81;5118918;27;45365;-53
2022/08/10 04:01:02;;;;;;;;;9.50;9.00;;;;;23.08;43.01;101796.47;5121540;27;45389;-50
2022/08/10 04:03:28;;;;;;;;;9.50;7.75;;;;;23.12;43.29;101799.63;5121803;27;45482;-54
2022/08/10 04:05:54;;;;;;;;;10.50;7.50;;;;;23.09;43.08;101802.75;5121189;27;45383;-51
2022/08/10 04:08:20;;;;;;;;;8.00;8.00;;;;;22.93;43.18;101776.81;5120829;27;45413;-53
2022/08/10 04:10:45;;;;;;;;;10.00;10.00;;;;;23.05;43.27;101799.63;5120984;27;45284;-54
2022/08/10 04:13:11;;;;;;;;;8.25;6.25;;;;;23.01;43.49;101798.34;5121495;27;45219;-53
2022/08/10 04:15:36;;;;;;;;;8.75;8.00;;;;;23.00;43.29;101802.09;5121215;27;46270;-53
2022/08/10 04:18:01;;;;;;;;;9.75;8.00;;;;;23.00;43.41;101810.22;5121314;27;45181;-50
2022/08/10 04:20:37;;;;;;;;;8.25;8.25;;;;;22.98;43.46;101808.78;5121436;27;45382;-50
2022/08/10 04:23:12;;;;;;;;;9.50;8.25;;;;;22.96;43.46;101811.66;5121663;27;45252;-51
2022/08/10 04:25:38;;;;;;;;;8.75;6.75;;;;;22.88;42.95;101807.25;5120744;27;46414;-50
2022/08/10 04:28:05;;;;;;;;;4.75;3.00;;;;;22.87;43.72;101818.28;5121051;27;45280;-48
2022/08/10 04:30:35;;;;;;;;;11.00;8.00;;;;;22.83;43.70;101801.56;5120973;27;45404;-49
2022/08/10 04:33:02;;;;;;;;;7.00;7.00;;;;;22.77;43.61;101804.28;5121174;27;45189;-51
2022/08/10 04:35:28;;;;;;;;;7.00;7.00;;;;;22.77;43.79;101810.53;5120588;27;46508;-52
2022/08/10 04:37:55;;;;;;;;;9.00;9.00;;;;;22.73;43.58;101803.00;5120833;27;45231;-53
2022/08/10 04:40:22;;;;;;;;;7.25;7.25;;;;;22.71;43.86;101803.19;5120915;27;45397;-52
2022/08/10 04:42:47;;;;;;;;;9.25;7.50;;;;;22.72;43.44;101806.75;5121123;27;45421;-52
2022/08/10 04:45:14;;;;;;;;;9.25;8.00;;;;;22.64;44.15;101803.16;5120417;27;47169;-52
2022/08/10 04:47:39;;;;;;;;;8.00;6.75;;;;;22.72;44.14;101814.88;5120869;27;45425;-51
2022/08/10 04:50:05;;;;;;;;;8.00;6.50;;;;;22.71;43.90;101810.47;5120991;27;45444;-51
2022/08/10 04:52:31;;;;;;;;;6.75;6.75;;;;;22.67;43.90;101812.78;5121036;27;45348;-51
2022/08/10 04:54:56;;;;;;;;;7.50;6.25;;;;;22.67;44.28;101813.63;5120316;27;45419;-51
2022/08/10 04:57:22;;;;;;;;;7.00;4.50;;;;;22.72;44.35;101817.59;5120508;27;45325;-50
2022/08/10 04:59:47;;;;;;;;;8.00;6.25;;;;;22.70;43.69;101825.09;5120513;27;45369;-51
2022/08/10 05:02:13;;;;;;;;;9.00;7.00;;;;;22.67;43.96;101824.47;5120843;27;45392;-50
2022/08/10 05:04:39;;;;;;;;;6.75;6.25;;;;;22.71;44.28;101827.59;5120399;27;45687;-50
2022/08/10 05:07:09;;;;;;;;;7.50;6.50;;;;;22.70;44.05;101831.34;5120371;27;45227;-53
2022/08/10 05:09:35;;;;;;;;;8.00;7.00;;;;;22.72;43.96;101828.44;5119920;27;45338;-52
2022/08/10 05:12:00;;;;;;;;;8.75;6.25;;;;;22.73;43.81;101833.66;5120397;27;45555;-52
2022/08/10 05:14:25;;;;;;;;;6.25;6.25;;;;;22.72;44.13;101825.75;5120305;27;45238;-49
2022/08/10 05:16:51;;;;;;;;;7.50;7.50;;;;;22.70;44.00;101830.50;5120250;27;45371;-53
2022/08/10 05:19:16;;;;;;;;;7.25;6.50;;;;;22.73;44.34;101836.38;5120400;27;45332;-49
2022/08/10 05:21:43;;;;;;;;;7.00;5.50;;;;;22.75;44.16;101839.72;5120434;27;45211;-50
2022/08/10 05:24:09;;;;;;;;;7.00;7.00;;;;;22.77;44.17;101825.97;5120235;27;45521;-52
2022/08/10 05:26:34;;;;;;;;;7.50;6.50;;;;;22.75;43.97;101831.56;5120001;27;45335;-53
2022/08/10 05:28:59;;;;;;;;;7.75;7.25;;;;;22.77;43.85;101839.53;5101956;27;45379;-50
2022/08/10 05:31:26;;;;;;;;;7.00;7.00;;;;;22.78;44.23;101828.47;5120807;27;45262;-52
2022/08/10 05:33:51;;;;;;;;;6.00;6.00;;;;;22.82;44.12;101837.03;5118399;27;47954;-51
2022/08/10 05:36:17;;;;;;;;;8.25;7.25;;;;;22.81;44.25;101836.22;5119997;27;45272;-50
2022/08/10 05:38:44;;;;;;;;;7.50;6.00;;;;;22.80;44.04;101842.69;5120137;27;45425;-59
2022/08/10 05:41:09;;;;;;;;;6.75;6.75;;;;;22.82;44.07;101835.16;5120035;27;45452;-54
2022/08/10 05:43:35;;;;;;;;;8.25;5.75;;;;;22.84;44.05;101832.28;5119152;27;46300;-50
2022/08/10 05:46:00;;;;;;;;;9.25;8.00;;;;;22.86;44.21;101836.44;5119668;27;45503;-51
2022/08/10 05:48:26;;;;;;;;;6.25;5.00;;;;;22.89;44.09;101838.75;5119977;27;45234;-50
2022/08/10 05:50:51;;;;;;;;;6.00;6.00;;;;;22.93;43.99;101838.41;5120192;27;45215;-52
2022/08/10 05:53:17;;;;;;;;;6.00;6.00;;;;;22.95;44.19;101842.56;5119505;27;46002;-51
2022/08/10 05:55:42;;;;;;;;;8.75;6.75;;;;;22.99;43.96;101827.56;5119467;27;45236;-53
2022/08/10 05:58:08;;;;;;;;;9.00;7.75;;;;;22.99;44.09;101835.69;5118691;27;45229;-51
2022/08/10 06:00:37;;;;;;;;;7.25;6.00;;;;;23.01;43.61;101838.22;5119624;27;45492;-53
2022/08/10 06:03:06;;;;;;;;;9.00;7.25;;;;;23.02;43.66;101837.19;5100958;27;45396;-51
2022/08/10 06:05:36;;;;;;;;;8.00;8.00;;;;;23.03;43.66;101834.25;5119430;27;45240;-53
2022/08/10 06:08:10;;;;;;;;;8.00;8.00;;;;;23.07;43.38;101840.94;5119766;27;45349;-56
2022/08/10 06:10:37;;;;;;;;;8.75;7.25;;;;;23.10;43.58;101837.00;5119747;27;45509;-55
2022/08/10 06:15:50;;;;;;;;;7.75;7.25;;;;;23.11;43.38;101847.66;5119467;27;45399;-55
2022/08/10 06:18:17;;;;;;;;;8.00;6.00;;;;;23.08;43.62;101841.78;5119588;27;45383;-56
2022/08/10 06:20:44;;;;;;;;;9.25;8.50;;;;;23.13;43.63;101847.44;5118380;27;45476;-52
2022/08/10 06:23:11;;;;;;;;;8.00;8.00;;;;;23.18;43.70;101846.84;5119063;27;45256;-52
2022/08/10 06:25:37;;;;;;;;;7.25;6.00;;;;;23.23;43.58;101842.47;5119145;27;45366;-52
2022/08/10 06:28:03;;;;;;;;;8.00;8.00;;;;;23.26;43.38;101861.09;5119012;27;45493;-52
2022/08/10 06:30:30;;;;;;;;;10.25;8.50;;;;;23.26;43.17;101852.94;5119235;27;45337;-52
2022/08/10 06:32:58;;;;;;;;;7.75;7.25;;;;;23.30;43.11;101856.06;5118886;27;46091;-51
2022/08/10 06:35:29;;;;;;;;;8.00;7.25;;;;;23.32;42.74;101854.81;5118560;27;45396;-50
2022/08/10 06:37:57;;;;;;;;;9.25;8.00;;;;;23.35;43.08;101857.13;5118723;27;45245;-52
2022/08/10 06:40:26;;;;;;;;;8.00;8.00;;;;;23.34;43.01;101847.31;5119107;27;45487;-53
2022/08/10 06:42:53;;;;;;;;;8.25;7.00;;;;;23.35;42.58;101851.72;5118675;27;46453;-49
2022/08/10 06:45:22;;;;;;;;;8.50;8.00;;;;;23.46;42.79;101855.69;5118697;27;45266;-52
2022/08/10 06:47:53;;;;;;;;;9.75;8.25;;;;;23.51;42.93;101855.94;5118863;27;45306;-48
2022/08/10 06:50:37;;;;;;;;;9.25;9.25;;;;;23.52;42.77;101851.34;5118859;27;45477;-51
2022/08/10 06:53:09;;;;;;;;;8.25;8.25;;;;;23.61;42.38;101853.66;5118388;27;46329;-51
2022/08/10 06:55:39;;;;;;;;;3.00;3.00;;;;;23.69;42.39;101851.81;5118423;27;46108;-51
2022/08/10 06:58:07;;;;;;;;;8.00;7.00;;;;;23.78;42.20;101850.56;5118599;27;45416;-52
2022/08/10 07:00:39;;;;;;;;;7.25;7.25;;;;;23.95;42.09;101856.44;5118742;27;45438;-54
2022/08/10 07:03:10;;;;;;;;;5.75;4.00;;;;;24.04;41.73;101836.16;5118334;27;45542;-53
2022/08/10 07:05:41;;;;;;;;;8.00;8.00;;;;;24.46;41.35;101861.25;5118360;27;45505;-52
2022/08/10 07:08:09;;;;;;;;;8.25;8.25;;;;;24.82;40.83;101850.72;5099628;27;45298;-48
2022/08/10 07:10:36;;;;;;;;;11.00;9.00;;;;;25.26;40.20;101850.97;5118573;27;45457;-52
2022/08/10 07:13:04;;;;;;;;;10.25;10.00;;;;;25.76;39.60;101846.47;5118169;27;46383;-53
2022/08/10 07:15:29;;;;;;;;;8.60;7.80;;;;;26.20;38.46;101841.09;5118394;27;45455;-55
2022/08/10 07:17:57;;;;;;;;;8.75;8.25;;;;;26.71;37.50;101846.28;5118501;27;45333;-51
2022/08/10 07:20:24;;;;;;;;;9.50;7.25;;;;;27.22;36.62;101839.59;5099898;27;45498;-51
2022/08/10 07:22:52;;;;;;;;;8.00;7.00;;;;;27.66;35.67;101817.53;5118074;27;45348;-51
2022/08/10 07:25:24;;;;;;;;;8.60;7.60;;;;;28.26;34.80;101817.34;5118346;27;45487;-47
2022/08/10 07:27:51;;;;;;;;;7.60;6.60;;;;;28.88;33.48;101839.56;5118454;27;45225;-50
2022/08/10 07:30:16;;;;;;;;;7.40;7.00;;;;;29.41;33.36;101837.59;5118288;27;45363;-56
2022/08/10 07:32:43;;;;;;;;;10.25;7.00;;;;;29.79;32.39;101835.03;5117784;27;46062;-53
2022/08/10 07:35:14;;;;;;;;;9.40;8.80;;;;;30.33;32.27;101837.25;5117884;27;45437;-56
2022/08/10 07:37:41;;;;;;;;;10.00;8.20;;;;;31.00;31.20;101837.06;5118105;27;45258;-54
2022/08/10 07:40:09;;;;;;;;;11.20;7.80;;;;;31.53;29.57;101831.88;5118416;27;45344;-49
2022/08/10 07:42:36;;;;;;;;;8.40;7.00;;;;;32.16;30.41;101829.41;5117737;27;45304;-54
2022/08/10 07:45:03;;;;;;;;;7.20;7.20;;;;;32.85;27.96;101833.91;5099633;27;45276;-54
2022/08/10 07:47:36;;;;;;;;;9.60;9.00;;;;;33.74;27.04;101835.50;5099738;27;45358;-56
2022/08/10 07:50:04;;;;;;;;;12.60;9.80;;;;;34.96;25.95;101835.25;5118182;27;45912;-54
2022/08/10 07:52:33;;;;;;;;;9.40;7.80;;;;;36.77;24.80;101837.03;5117209;27;47079;-54
2022/08/10 07:55:01;;;;;;;;;7.80;7.80;;;;;38.61;22.88;101837.66;5117944;27;45368;-51
2022/08/10 07:57:29;;;;;;;;;9.20;6.40;;;;;40.34;19.61;101831.81;5117742;27;45343;-54
2022/08/10 07:59:58;;;;;;;;;10.20;7.20;;;;;41.72;19.11;101828.38;5118383;27;45395;-57
2022/08/10 08:02:29;;;;;;;;;8.00;8.00;;;;;42.65;20.04;101840.72;5117727;27;45745;-53
2022/08/10 08:04:59;;;;;;;;;5.80;5.80;;;;;43.32;17.23;101841.69;5117721;27;45380;-52
2022/08/10 08:07:26;;;;;;;;;9.00;9.00;;;;;44.33;16.86;101844.09;5117772;27;45343;-54
2022/08/10 08:09:54;;;;;;;;;7.00;6.40;;;;;44.99;15.77;101835.38;5117994;27;45361;-51
2022/08/10 08:12:20;;;;;;;;;5.80;5.80;;;;;45.90;14.19;101831.97;5117223;27;47347;-54
2022/08/10 08:14:47;;;;;;;;;10.20;8.40;;;;;46.90;14.57;101837.16;5117795;27;45448;-54
2022/08/10 08:17:15;;;;;;;;;8.40;8.40;;;;;47.68;14.40;101838.00;5118047;27;45333;-52
2022/08/10 08:19:43;;;;;;;;;7.00;7.00;;;;;48.32;12.80;101837.47;5099460;27;45466;-53
2022/08/10 08:22:10;;;;;;;;;8.00;8.00;;;;;48.69;12.60;101837.66;5117184;27;47636;-54
2022/08/10 08:24:36;;;;;;;;;10.00;7.00;;;;;49.17;12.13;101835.88;5117492;27;45411;-54
2022/08/10 08:27:03;;;;;;;;;7.60;7.20;;;;;49.98;11.05;101828.63;5117448;27;45368;-54
2022/08/10 08:29:34;;;;;;;;;8.80;8.80;;;;;50.66;12.17;101829.97;5117743;27;45357;-54
2022/08/10 08:32:01;;;;;;;;;6.60;6.40;;;;;51.01;10.61;101824.88;5117214;27;45420;-52
2022/08/10 08:34:28;;;;;;;;;7.60;7.60;;;;;51.59;11.55;101826.69;5117574;27;45435;-54
2022/08/10 08:36:54;;;;;;;;;8.40;7.00;;;;;51.87;10.77;101825.84;5117512;27;45407;-52
2022/08/10 08:39:19;;;;;;;;;9.40;7.80;;;;;52.21;10.02;101820.56;5117669;27;45317;-54
2022/08/10 08:42:02;;;;;;;;;9.00;9.00;;;;;52.53;9.82;101822.56;5117181;27;45405;-55
2022/08/10 08:44:58;;;;;;;;;6.80;6.00;;;;;53.10;11.56;101825.16;5117495;27;45414;-55
2022/08/10 08:47:57;;;;;;;;;5.80;5.80;;;;;53.57;9.14;101809.47;5121031;27;45338;-58
2022/08/10 08:50:34;;;;;;;;;7.20;7.20;;;;;53.99;9.86;101815.25;5121225;27;45260;-55
2022/08/10 08:53:27;;;;;;;;;7.80;7.80;;;;;54.07;9.92;101814.75;5120544;27;47235;-55
2022/08/10 08:55:58;;;;;;;;;9.00;9.00;;;;;54.31;8.43;101809.22;5120490;27;45233;-54
2022/08/10 08:58:54;;;;;;;;;11.00;8.00;;;;;54.43;8.66;101817.19;5120805;27;45500;-53
2022/08/10 09:01:50;;;;;;;;;8.00;7.00;;;;;54.83;9.29;101811.88;5120985;27;45416;-54
2022/08/10 09:04:23;;;;;;;;;8.60;8.60;;;;;54.52;10.13;101811.81;5120219;27;45415;-53
2022/08/10 09:07:20;;;;;;;;;7.40;7.00;;;;;54.25;8.67;101813.75;5120591;27;45367;-53
2022/08/10 09:10:10;;;;;;;;;2.40;2.40;;;;;54.81;9.14;101808.63;5101750;27;45342;-54
2022/08/10 09:12:59;;;;;;;;;6.60;6.60;;;;;54.92;8.69;101808.50;5120535;27;45284;-53
2022/08/10 09:15:33;;;;;;;;;8.80;7.40;;;;;55.34;9.09;101807.06;5120225;27;47062;-52
2022/08/10 09:18:09;;;;;;;;;7.40;6.80;;;;;55.46;9.49;101805.63;5120494;27;45396;-55
2022/08/10 09:20:44;;;;;;;;;9.40;8.00;;;;;55.47;9.14;101805.25;5120491;27;45296;-52
2022/08/10 09:23:23;;;;;;;;;8.20;6.80;;;;;54.97;9.12;101796.63;5120267;27;45383;-53
2022/08/10 09:25:59;;;;;;;;;8.80;7.60;;;;;54.59;9.13;101795.91;5119204;27;46286;-54
2022/08/10 09:28:30;;;;;;;;;10.20;8.00;;;;;54.67;9.00;101798.22;5119796;27;45318;-53
2022/08/10 09:31:02;;;;;;;;;7.60;6.00;;;;;54.61;9.04;101799.09;5120075;27;45401;-54
2022/08/10 09:33:37;;;;;;;;;7.40;7.40;;;;;54.96;8.47;101783.59;5120164;27;45314;-54
2022/08/10 09:36:25;;;;;;;;;8.20;8.20;;;;;55.67;8.46;101787.38;5119729;27;45331;-54
2022/08/10 09:39:10;;;;;;;;;7.40;7.40;;;;;56.12;8.13;101787.81;5119853;27;45256;-55
2022/08/10 09:42:04;;;;;;;;;9.00;9.00;;;;;56.08;7.66;101787.03;5119950;27;45355;-53
2022/08/10 09:44:44;;;;;;;;;9.20;7.60;;;;;56.18;8.09;101788.13;5120065;27;45507;-53
2022/08/10 09:47:28;;;;;;;;;8.20;6.40;;;;;56.26;7.96;101787.53;5119837;27;45528;-54
2022/08/10 09:50:11;;;;;;;;;9.60;8.20;;;;;56.13;8.10;101786.56;5101158;27;45480;-54
2022/08/10 09:53:09;;;;;;;;;6.60;6.60;;;;;56.18;7.78;101785.28;5120000;27;45300;-52
2022/08/10 09:55:37;;;;;;;;;10.00;9.00;;;;;56.35;7.01;101784.09;5120149;27;45172;-54
2022/08/10 09:58:02;;;;;;;;;8.60;8.60;;;;;56.72;8.31;101780.06;5119579;27;45380;-51
2022/08/10 10:00:54;;;;;;;;;8.75;8.75;;;;;56.74;8.18;101777.56;5119702;27;45354;-54
2022/08/10 10:03:40;;;;;;;;;11.20;10.80;;;;;56.96;7.31;101777.06;5035841;28;45338;-54
2022/08/10 10:06:20;;;;;;;;;8.60;6.60;;;;;56.73;7.45;101783.75;5036131;28;45277;-51
2022/08/10 10:09:02;;;;;;;;;10.00;9.20;;;;;56.22;7.58;101768.84;5035549;28;46597;-54
2022/08/10 10:11:51;;;;;;;;;7.80;7.80;;;;;56.36;7.55;101762.03;5035765;28;45439;-56
2022/08/10 10:15:19;;;;;;;;;6.40;6.40;;;;;56.08;8.34;101757.69;5035677;28;45267;-54
2022/08/10 10:17:57;;;;;;;;;9.20;8.80;;;;;55.99;7.44;101752.56;5035838;28;45615;-55
2022/08/10 10:20:31;;;;;;;;;7.40;7.40;;;;;55.95;7.11;101751.81;5035846;28;45488;-53
2022/08/10 10:23:13;;;;;;;;;9.20;9.00;;;;;55.85;7.57;101750.78;5035430;28;45410;-54
2022/08/10 10:25:58;;;;;;;;;7.20;7.00;;;;;55.66;7.63;101751.53;5035669;28;45289;-53
2022/08/10 10:28:23;;;;;;;;;9.20;7.80;;;;;55.78;6.42;101742.34;5035449;28;45334;-52
2022/08/10 10:31:14;;;;;;;;;9.00;8.25;;;;;55.87;7.75;101742.59;5035294;28;45485;-53
2022/08/10 10:33:58;;;;;;;;;10.20;8.00;;;;;56.00;7.63;101740.69;5035326;28;45364;-53
2022/08/10 10:36:25;;;;;;;;;10.80;7.60;;;;;55.73;7.64;101737.13;5035573;28;45436;-55
2022/08/10 10:38:54;;;;;;;;;5.80;5.80;;;;;55.10;7.83;101726.34;5035654;28;45385;-53
2022/08/10 10:41:31;;;;;;;;;10.20;7.40;;;;;55.12;7.80;101729.56;5093880;27;45949;-52
2022/08/10 10:44:15;;;;;;;;;9.60;8.20;;;;;55.05;7.10;101727.66;5098223;27;45424;-54
2022/08/10 10:46:52;;;;;;;;;3.60;3.60;;;;;54.89;7.68;101724.63;5098544;27;45374;-55
2022/08/10 10:49:42;;;;;;;;;5.60;5.60;;;;;54.26;7.53;101715.69;5098664;27;45510;-53
2022/08/10 10:52:32;;;;;;;;;6.40;5.40;;;;;53.82;7.22;101715.34;5098085;27;46385;-54
2022/08/10 10:55:35;;;;;;;;;7.20;6.20;;;;;53.65;7.34;101719.19;5098166;27;45515;-53
2022/08/10 10:58:14;;;;;;;;;8.40;7.20;;;;;53.77;7.66;101714.97;5098164;27;45366;-53
2022/08/10 11:01:00;;;;;;;;;7.20;6.60;;;;;53.72;7.34;101707.72;5098545;27;45384;-54
2022/08/10 11:03:47;;;;;;;;;1.20;0.20;;;;;53.20;7.49;101696.38;5098013;27;45414;-54
2022/08/10 11:06:15;;;;;;;;;9.00;9.00;;;;;52.73;6.70;101700.75;5098176;27;45461;-55
2022/08/10 11:08:48;;;;;;;;;4.80;3.40;;;;;52.44;8.36;101686.66;5097444;27;45263;-54
2022/08/10 11:11:21;;;;;;;;;6.20;5.40;;;;;52.16;7.04;101689.59;5079652;27;45303;-54
2022/08/10 11:14:01;;;;;;;;;8.80;7.80;;;;;52.42;7.59;101691.94;5097797;27;46244;-54
2022/08/10 11:16:37;;;;;;;;;7.20;6.80;;;;;52.58;7.22;101689.44;5097779;27;45476;-54
2022/08/10 11:19:14;;;;;;;;;6.80;6.40;;;;;52.98;8.01;101681.53;5097138;27;45504;-55
2022/08/10 11:21:53;;;;;;;;;7.80;7.80;;;;;52.09;7.67;101681.94;5098022;27;45476;-55
2022/08/10 11:24:39;;;;;;;;;6.00;6.00;;;;;51.76;8.36;101684.00;5097643;27;46257;-53
2022/08/10 11:27:08;;;;;;;;;5.80;5.80;;;;;51.28;8.08;101680.78;5097793;27;45294;-54
2022/08/10 11:29:59;;;;;;;;;8.20;8.20;;;;;49.97;8.33;101673.44;5097803;27;45385;-55
2022/08/10 11:32:53;;;;;;;;;7.40;6.80;;;;;49.39;8.77;101677.81;5097833;27;45354;-53
2022/08/10 11:35:45;;;;;;;;;6.80;6.80;;;;;48.70;9.21;101681.94;5101615;27;46073;-52
2022/08/10 11:38:48;;;;;;;;;7.80;7.80;;;;;47.80;9.97;101667.00;5117975;27;45321;-54
2022/08/10 11:41:33;;;;;;;;;10.80;8.00;;;;;47.20;10.03;101665.59;5118228;27;45248;-53
2022/08/10 11:44:24;;;;;;;;;9.60;5.60;;;;;45.70;10.52;101656.72;5118350;27;45353;-54
2022/08/10 11:46:59;;;;;;;;;7.00;7.00;;;;;44.00;11.52;101659.97;5117851;27;46447;-53
2022/08/10 11:49:34;;;;;;;;;7.00;6.80;;;;;42.69;11.80;101654.22;5118124;27;45246;-53
2022/08/10 11:52:09;;;;;;;;;8.20;8.20;;;;;41.27;13.08;101652.84;5117921;27;45453;-53
2022/08/10 11:54:57;;;;;;;;;8.60;8.60;;;;;40.00;13.86;101659.72;5118198;27;45394;-53